Terminal Aerodrome Forecast
Issued by NWS Wilmington, OH

Current Version | Previous Version | Graphics & Text | Print | Product List | Glossary On
Versions: 1 2 3 4 5 6 7 8 9 10 11 12 13 14 15 16 17 18 19 20 21
671
FTUS41 KILN 201120
TAFILN
TAF
KILN 201120Z 2012/2112 07007KT 1/4SM FG VV002
     FM201400 10007KT P6SM BKN012
      TEMPO 2014/2015 4SM BR OVC008
     FM201600 14007KT P6SM SCT015 SCT045
     FM201900 16007KT P6SM VCSH BKN050
      TEMPO 2020/2022 4SM -TSRA BR BKN030CB OVC050
     FM210500 18006KT P6SM VCSH SCT050 BKN100
     FM211100 18006KT P6SM -SHRA VCTS OVC028CB=

USA.gov is the U.S. government's official web portal to all federal, state and local government web resources and services.